General Roca, Argentina
Current Conditions -  °F | °C
As of 3:00 PM on Thursday 30 Oct 2014 (Local Time) from SAAR Reporting Station
Broken Clouds Broken Clouds  
Wind Chill: 77°   Ceiling: 10000
Heat Index: 78°   Visibility: 6mi
Dew Point: 52°   Wind: 13mph
Humidity: 41%   Direction: 70°ENE
Pressure: 29.8"   Gusts: NA
Location:  32.73°S, 61.92°W
Report Text: SAAR 301800Z 07011KT 9999 FEW030 BKN10025/11 Q1009
Loading
Personal Weather Stations






























Interactive Weather Map
Tropical Storm Tracking
New forecast layout! Learn more

10-Day Weather Forecast

Advertisements
Track Severe Weather on mobile